SBRB/RBR METAR and TAF weather

Enter ICAO airport designator
Station Type Date Time Source
SBRB METAR 2019/02/21 15:00 UTC NOAA

SBRB 211500Z 04006KT 9999 SCT020 29/24 Q1015


Station Type Date Time Source
SBRB Decoded METAR 2019/02/21 15:00 UTC NOAA

Rio Branco, Brazil (SBRB) 10-00S 067-48W 143M
Feb 21, 2019 - 10:00 AM EST / 2019.02.21 1500 UTC
Wind: from the NE (040 degrees) at 7 MPH (6 KT):0
Visibility: greater than 7 mile(s):0
Sky conditions: partly cloudy
Temperature: 84 F (29 C)
Dew Point: 75 F (24 C)
Relative Humidity: 74%
Pressure (altimeter): 29.97 in. Hg (1015 hPa)
ob: SBRB 211500Z 04006KT 9999 SCT020 29/24 Q1015
cycle: 15

Station Type Date Time Source
SBRB TAF 2019/02/21 12:18 UTC NOAA

TAF TAF SBRB 211000Z 2112/2212 22005KT 8000 FEW012 TX30/2118Z TN24/2207Z
BECMG 2113/2115 23005KT SCT015
BECMG 2116/2118 18005KT SCT025 FEW035TCU
FM220000 03003KT 8000 SCT008
BECMG 2210/2212 BKN006
RMK PAZ


Example: see airport list